createdAt,value
2019-04-04T00:00:01.817Z,6.90
2019-04-04T00:05:33.135Z,6.10
2019-04-04T00:08:21.158Z,6.17
2019-04-04T00:11:09.188Z,6.10
2019-04-04T00:13:57.261Z,5.67
2019-04-04T00:16:46.800Z,5.83
2019-04-04T00:19:35.134Z,5.50
2019-04-04T00:22:23.155Z,6.53
2019-04-04T00:25:11.172Z,5.80
2019-04-04T00:27:59.448Z,5.90
2019-04-04T00:30:48.416Z,5.50
2019-04-04T00:33:37.545Z,4.90
2019-04-04T00:36:25.550Z,5.33
2019-04-04T00:39:13.592Z,5.97
2019-04-04T00:42:01.599Z,6.13
2019-04-04T00:44:49.946Z,6.20
2019-04-04T00:47:37.956Z,5.23
2019-04-04T00:50:26.055Z,4.97
2019-04-04T00:53:14.081Z,5.67
2019-04-04T00:56:02.188Z,5.17
2019-04-04T00:58:43.560Z,4.80
2019-04-04T01:01:26.823Z,5.60
2019-04-04T01:04:07.367Z,5.43
2019-04-04T01:09:33.845Z,5.87
2019-04-04T01:12:14.270Z,7.07
2019-04-04T01:14:55.385Z,6.20
2019-04-04T01:17:36.217Z,6.70
2019-04-04T01:20:18.109Z,6.13
2019-04-04T01:22:59.773Z,6.40
2019-04-04T01:25:40.512Z,7.40
2019-04-04T01:28:21.565Z,5.73
2019-04-04T01:31:03.182Z,5.67
2019-04-04T01:33:44.479Z,6.40
2019-04-04T01:36:25.970Z,7.13
2019-04-04T01:39:06.568Z,6.30
2019-04-04T01:41:47.223Z,6.57
2019-04-04T01:44:27.763Z,6.27
2019-04-04T01:47:08.462Z,7.07
2019-04-04T01:49:49.910Z,6.77
2019-04-04T01:52:32.504Z,7.10
2019-04-04T01:55:13.469Z,8.13
2019-04-04T01:57:54.513Z,7.20
2019-04-04T02:00:35.511Z,7.43
2019-04-04T02:03:16.475Z,6.60
2019-04-04T02:05:58.168Z,7.13
2019-04-04T02:08:39.087Z,7.70
2019-04-04T02:11:19.826Z,7.80
2019-04-04T02:14:00.408Z,8.20
2019-04-04T02:16:40.788Z,7.10
2019-04-04T02:19:24.552Z,8.03
2019-04-04T02:22:04.516Z,7.37
2019-04-04T02:24:45.094Z,7.97
2019-04-04T02:27:25.723Z,7.57
2019-04-04T02:30:06.481Z,7.30
2019-04-04T02:32:47.712Z,7.13
2019-04-04T02:35:28.633Z,9.90
2019-04-04T02:38:09.740Z,8.53
2019-04-04T02:40:50.644Z,8.67
2019-04-04T02:43:31.619Z,7.83
2019-04-04T02:46:12.547Z,8.73
2019-04-04T02:48:56.235Z,8.10
2019-04-04T02:51:40.221Z,8.93
2019-04-04T02:54:24.156Z,8.60
2019-04-04T02:57:02.483Z,8.53
2019-04-04T02:59:43.445Z,8.50
2019-04-04T03:02:24.742Z,8.80
2019-04-04T03:05:05.493Z,7.60
2019-04-04T03:07:46.292Z,9.20
2019-04-04T03:10:27.525Z,8.33
2019-04-04T03:13:07.873Z,9.27
2019-04-04T03:15:48.689Z,9.40
2019-04-04T03:18:29.649Z,10.13
2019-04-04T03:21:10.276Z,10.10
2019-04-04T03:23:51.305Z,9.77
2019-04-04T03:26:32.109Z,8.47
2019-04-04T03:29:12.865Z,10.57
2019-04-04T03:31:53.433Z,10.00
2019-04-04T03:34:34.674Z,9.33
2019-04-04T03:37:15.266Z,8.73
2019-04-04T03:39:56.284Z,9.90
2019-04-04T03:42:37.126Z,9.07
2019-04-04T03:45:18.002Z,8.57
2019-04-04T03:47:59.292Z,9.10
2019-04-04T03:50:39.802Z,9.90
2019-04-04T03:53:21.562Z,10.00
2019-04-04T03:56:02.210Z,9.53
2019-04-04T03:58:42.801Z,10.33
2019-04-04T04:01:23.599Z,9.97
2019-04-04T04:04:04.268Z,9.63
2019-04-04T04:06:45.044Z,9.43
2019-04-04T04:09:26.372Z,8.90
2019-04-04T04:12:11.132Z,10.70
2019-04-04T04:14:54.115Z,11.63
2019-04-04T04:17:36.239Z,9.67
2019-04-04T04:20:16.452Z,12.00
2019-04-04T04:22:57.509Z,11.17
2019-04-04T04:25:38.881Z,11.37
2019-04-04T04:28:20.805Z,10.50
2019-04-04T04:31:01.914Z,10.33
2019-04-04T04:33:42.366Z,9.20
2019-04-04T04:36:23.022Z,10.57
2019-04-04T04:39:05.593Z,10.10
2019-04-04T04:41:46.542Z,11.90
2019-04-04T04:44:27.394Z,11.50
2019-04-04T04:47:07.982Z,10.60
2019-04-04T04:49:48.732Z,9.37
2019-04-04T04:52:29.528Z,10.67
2019-04-04T04:54:58.324Z,11.17
2019-04-04T04:57:46.410Z,12.37
2019-04-04T05:00:34.486Z,13.17
2019-04-04T05:03:24.257Z,12.40
2019-04-04T05:06:12.532Z,11.30
2019-04-04T05:09:00.864Z,10.83
2019-04-04T05:11:50.237Z,11.37
2019-04-04T05:14:38.625Z,12.20
2019-04-04T05:17:26.647Z,12.93
2019-04-04T05:20:14.668Z,12.33
2019-04-04T05:23:02.785Z,12.73
2019-04-04T05:25:54.153Z,14.10
2019-04-04T05:28:42.019Z,12.60
2019-04-04T05:31:30.327Z,12.67
2019-04-04T05:34:18.449Z,11.70
2019-04-04T05:37:07.284Z,12.20
2019-04-04T05:39:51.504Z,11.77
2019-04-04T05:42:33.014Z,11.80
2019-04-04T05:45:15.139Z,11.97
2019-04-04T05:47:58.310Z,11.70
2019-04-04T05:50:38.216Z,11.97
2019-04-04T05:53:21.441Z,12.97
2019-04-04T05:56:01.349Z,11.23
2019-04-04T05:58:42.014Z,12.33
2019-04-04T06:04:04.966Z,13.40
2019-04-04T06:06:46.245Z,14.90
2019-04-04T06:09:27.160Z,13.50
2019-04-04T06:12:07.960Z,14.40
2019-04-04T06:14:49.356Z,14.10
2019-04-04T06:17:29.920Z,13.93
2019-04-04T06:20:10.275Z,14.20
2019-04-04T06:22:52.013Z,15.20
2019-04-04T06:25:35.576Z,13.00
2019-04-04T06:28:16.179Z,14.60
2019-04-04T06:30:56.864Z,16.10
2019-04-04T06:33:37.701Z,14.03
2019-04-04T06:36:18.438Z,15.87
2019-04-04T06:38:59.249Z,14.53
2019-04-04T06:41:40.594Z,15.13
2019-04-04T06:44:21.122Z,15.60
2019-04-04T06:47:02.638Z,15.40
2019-04-04T06:49:45.791Z,14.33
2019-04-04T06:52:25.978Z,15.57
2019-04-04T06:55:06.552Z,15.10
2019-04-04T06:57:49.802Z,16.00
2019-04-04T07:00:29.493Z,16.47
2019-04-04T07:03:10.185Z,16.37
2019-04-04T07:05:50.839Z,17.30
2019-04-04T07:08:31.384Z,17.10
2019-04-04T07:11:21.293Z,17.70
2019-04-04T07:13:57.043Z,15.97
2019-04-04T07:16:38.029Z,15.90
2019-04-04T07:19:18.450Z,17.37
2019-04-04T07:21:58.817Z,17.53
2019-04-04T07:24:39.531Z,18.00
2019-04-04T07:27:20.273Z,16.67
2019-04-04T07:30:01.181Z,17.17
2019-04-04T07:32:41.853Z,18.27
2019-04-04T07:35:22.264Z,17.13
2019-04-04T07:38:02.734Z,17.37
2019-04-04T07:40:43.977Z,17.07
2019-04-04T07:43:24.658Z,18.33
2019-04-04T07:46:16.173Z,16.57
2019-04-04T07:48:51.288Z,16.77
2019-04-04T07:51:30.962Z,17.13
2019-04-04T07:56:55.529Z,17.97
2019-04-04T07:59:36.187Z,19.50
2019-04-04T08:02:16.849Z,21.20
2019-04-04T08:04:57.614Z,18.87
2019-04-04T08:07:38.182Z,19.13
2019-04-04T08:10:20.901Z,20.40
2019-04-04T08:13:01.795Z,21.73
2019-04-04T08:15:42.482Z,20.50
2019-04-04T08:18:23.645Z,19.60
2019-04-04T08:21:05.714Z,25.33
2019-04-04T08:23:46.973Z,22.70
2019-04-04T08:26:27.504Z,25.53
2019-04-04T08:29:08.424Z,24.97
2019-04-04T08:31:49.427Z,24.93
2019-04-04T08:34:30.134Z,23.40
2019-04-04T08:37:11.125Z,25.80
2019-04-04T08:39:52.236Z,27.80
2019-04-04T08:42:32.963Z,27.47
2019-04-04T08:45:13.848Z,23.97
2019-04-04T08:47:54.841Z,23.80
2019-04-04T08:50:35.496Z,25.27
2019-04-04T08:53:16.271Z,24.80
2019-04-04T08:55:57.335Z,25.80
2019-04-04T08:58:37.874Z,22.63
2019-04-04T09:01:19.107Z,25.30
2019-04-04T09:04:00.068Z,26.13
2019-04-04T09:06:40.768Z,23.10
2019-04-04T09:09:21.890Z,22.97
2019-04-04T09:12:03.136Z,22.10
2019-04-04T09:14:44.328Z,22.10
2019-04-04T09:17:25.635Z,24.00
2019-04-04T09:20:09.340Z,22.13
2019-04-04T09:22:48.638Z,22.70
2019-04-04T09:25:29.514Z,23.33
2019-04-04T09:28:10.694Z,25.67
2019-04-04T09:30:51.667Z,23.57
2019-04-04T09:33:32.178Z,24.07
2019-04-04T09:36:13.013Z,22.80
2019-04-04T09:38:53.874Z,23.73
2019-04-04T09:41:34.673Z,22.60
2019-04-04T09:44:16.012Z,23.20
2019-04-04T09:47:05.275Z,24.00
2019-04-04T09:49:39.448Z,22.50
2019-04-04T09:52:20.275Z,24.20
2019-04-04T09:55:01.174Z,24.07
2019-04-04T09:57:42.117Z,22.57
2019-04-04T10:00:22.953Z,23.77
2019-04-04T10:03:03.793Z,23.53
2019-04-04T10:05:44.628Z,31.10
2019-04-04T10:08:25.413Z,28.40
2019-04-04T10:11:06.324Z,30.23
2019-04-04T10:13:46.760Z,29.90
2019-04-04T10:16:27.724Z,26.50
2019-04-04T10:21:51.546Z,29.40
2019-04-04T10:24:32.492Z,31.77
2019-04-04T10:27:13.570Z,34.63
2019-04-04T10:29:54.425Z,35.83
2019-04-04T10:32:35.606Z,33.80
2019-04-04T10:35:16.323Z,35.90
2019-04-04T10:37:57.037Z,37.10
2019-04-04T10:40:37.446Z,39.17
2019-04-04T10:43:17.861Z,42.67
2019-04-04T10:45:59.335Z,43.00
2019-04-04T10:48:39.692Z,41.47
2019-04-04T10:51:20.404Z,43.10
2019-04-04T10:54:01.172Z,41.73
2019-04-04T10:56:42.138Z,40.40
2019-04-04T10:59:23.011Z,36.37
2019-04-04T11:02:04.136Z,37.00
2019-04-04T11:07:29.748Z,39.77
2019-04-04T11:10:11.437Z,41.40
2019-04-04T11:12:52.565Z,44.93
2019-04-04T11:15:33.684Z,44.43
2019-04-04T11:18:14.612Z,42.60
2019-04-04T11:20:55.338Z,47.13
2019-04-04T11:23:36.323Z,47.80
2019-04-04T11:26:17.077Z,44.77
2019-04-04T11:28:58.204Z,44.60
2019-04-04T11:31:38.798Z,40.07
2019-04-04T11:37:02.050Z,34.77
2019-04-04T11:39:53.964Z,41.70
2019-04-04T11:42:25.240Z,37.20
2019-04-04T11:45:05.789Z,31.80
2019-04-04T11:47:46.618Z,30.03
2019-04-04T11:50:27.242Z,29.00
2019-04-04T11:53:07.887Z,30.20
2019-04-04T11:55:48.936Z,27.30
2019-04-04T11:58:29.931Z,23.50
2019-04-04T12:01:11.492Z,20.57
2019-04-04T12:06:35.205Z,20.07
2019-04-04T12:09:15.644Z,17.43
2019-04-04T12:11:56.317Z,17.67
2019-04-04T12:14:36.682Z,17.40
2019-04-04T12:17:17.847Z,16.00
2019-04-04T12:19:58.689Z,17.07
2019-04-04T12:22:39.518Z,17.03
2019-04-04T12:25:19.936Z,17.07
2019-04-04T12:28:00.779Z,17.90
2019-04-04T12:30:41.288Z,17.60
2019-04-04T12:36:09.263Z,16.67
2019-04-04T12:38:50.462Z,19.07
2019-04-04T12:41:31.428Z,20.10
2019-04-04T12:44:12.336Z,18.37
2019-04-04T12:46:52.866Z,19.17
2019-04-04T12:49:33.765Z,20.40
2019-04-04T12:52:14.361Z,17.97
2019-04-04T12:54:55.366Z,19.40
2019-04-04T12:57:36.043Z,18.90
2019-04-04T13:00:17.096Z,21.13
2019-04-04T13:02:57.904Z,19.00
2019-04-04T13:05:38.536Z,20.27
2019-04-04T13:08:19.362Z,20.93
2019-04-04T13:13:43.410Z,19.70
2019-04-04T13:16:24.744Z,19.60
2019-04-04T13:19:05.954Z,21.07
2019-04-04T13:21:47.225Z,21.47
2019-04-04T13:24:27.598Z,21.60
2019-04-04T13:27:08.497Z,20.93
2019-04-04T13:29:49.157Z,23.67
2019-04-04T13:32:30.135Z,21.10
2019-04-04T13:35:10.651Z,22.97
2019-04-04T13:37:54.043Z,21.70
2019-04-04T13:40:44.697Z,23.77
2019-04-04T13:43:20.321Z,21.17
2019-04-04T13:46:01.278Z,21.60
2019-04-04T13:48:43.541Z,20.90
2019-04-04T13:51:25.536Z,23.93
2019-04-04T13:54:07.225Z,20.77
2019-04-04T13:56:47.994Z,21.10
2019-04-04T13:59:29.440Z,20.00
2019-04-04T14:02:10.856Z,21.10
2019-04-04T14:04:54.758Z,20.73
2019-04-04T14:07:34.241Z,21.63
2019-04-04T14:12:59.487Z,20.67
2019-04-04T14:15:40.680Z,24.13
2019-04-04T14:18:24.458Z,21.80
2019-04-04T14:21:05.056Z,21.70
2019-04-04T14:23:45.498Z,21.27
2019-04-04T14:26:26.238Z,21.63
2019-04-04T14:29:07.141Z,22.53
2019-04-04T14:31:47.822Z,22.03
2019-04-04T14:37:11.502Z,21.13
2019-04-04T14:39:52.463Z,23.63
2019-04-04T14:42:32.844Z,22.90
2019-04-04T14:45:13.947Z,22.87
2019-04-04T14:47:55.062Z,23.53
2019-04-04T14:50:35.942Z,23.30
2019-04-04T14:53:16.821Z,22.67
2019-04-04T14:55:57.269Z,21.40
2019-04-04T14:58:37.869Z,23.60
2019-04-04T15:04:01.845Z,23.53
2019-04-04T15:06:42.437Z,23.60
2019-04-04T15:09:23.008Z,26.33
2019-04-04T15:12:03.687Z,24.53
2019-04-04T15:14:44.352Z,25.10
2019-04-04T15:17:24.973Z,24.10
2019-04-04T15:20:05.416Z,24.70
2019-04-04T15:22:46.260Z,26.13
2019-04-04T15:25:27.364Z,26.97
2019-04-04T15:28:08.340Z,25.07
2019-04-04T15:30:37.152Z,23.50
2019-04-04T15:33:25.192Z,24.83
2019-04-04T15:36:13.265Z,25.10
2019-04-04T15:38:53.723Z,27.47
2019-04-04T15:41:37.251Z,23.93
2019-04-04T15:44:16.878Z,26.37
2019-04-04T15:46:57.908Z,28.70
2019-04-04T15:49:38.693Z,25.17
2019-04-04T15:52:19.841Z,25.80
2019-04-04T15:55:01.167Z,26.70
2019-04-04T15:57:41.653Z,26.53
2019-04-04T16:00:22.353Z,26.67
2019-04-04T16:03:03.092Z,25.30
2019-04-04T16:05:43.661Z,29.50
2019-04-04T16:08:24.107Z,26.43
2019-04-04T16:11:04.873Z,28.03
2019-04-04T16:13:45.273Z,27.83
2019-04-04T16:16:26.100Z,27.90
2019-04-04T16:19:06.852Z,27.93
2019-04-04T16:21:48.127Z,26.43
2019-04-04T16:24:29.396Z,27.00
2019-04-04T16:27:10.420Z,29.30
2019-04-04T16:29:51.214Z,27.40
2019-04-04T16:35:14.779Z,28.60
2019-04-04T16:37:55.696Z,28.00
2019-04-04T16:40:36.812Z,28.87
2019-04-04T16:43:17.389Z,30.90
2019-04-04T16:45:58.187Z,29.57
2019-04-04T16:48:39.317Z,30.43
2019-04-04T16:51:20.232Z,31.87
2019-04-04T16:54:01.340Z,35.07
2019-04-04T16:56:41.710Z,37.23
2019-04-04T16:59:22.520Z,35.57
2019-04-04T17:02:03.526Z,38.43
2019-04-04T17:04:44.253Z,36.93
2019-04-04T17:07:25.011Z,37.00
2019-04-04T17:10:05.792Z,38.47
2019-04-04T17:12:46.569Z,37.60
2019-04-04T17:15:27.833Z,37.40
2019-04-04T17:18:08.432Z,38.00
2019-04-04T17:20:49.482Z,37.73
2019-04-04T17:23:30.755Z,39.50
2019-04-04T17:26:11.845Z,39.20
2019-04-04T17:28:52.491Z,40.13
2019-04-04T17:31:34.009Z,38.90
2019-04-04T17:34:15.762Z,35.13
2019-04-04T17:36:57.434Z,38.47
2019-04-04T17:39:38.151Z,37.33
2019-04-04T17:45:02.571Z,38.17
2019-04-04T17:47:44.273Z,37.67
2019-04-04T17:50:25.244Z,37.13
2019-04-04T17:53:06.446Z,34.80
2019-04-04T17:55:48.492Z,40.47
2019-04-04T17:58:29.894Z,35.90
2019-04-04T18:01:12.792Z,38.13
2019-04-04T18:03:53.691Z,39.33
2019-04-04T18:06:34.618Z,37.40
2019-04-04T18:09:15.928Z,38.27
2019-04-04T18:11:57.067Z,37.83
2019-04-04T18:14:37.979Z,40.00
2019-04-04T18:20:02.254Z,37.50
2019-04-04T18:22:43.548Z,36.57
2019-04-04T18:25:25.133Z,36.20
2019-04-04T18:28:05.800Z,36.10
2019-04-04T18:30:47.188Z,35.43
2019-04-04T18:33:27.997Z,34.30
2019-04-04T18:36:08.729Z,35.50
2019-04-04T18:38:49.351Z,31.90
2019-04-04T18:41:30.521Z,31.50
2019-04-04T18:44:11.787Z,33.03
2019-04-04T18:46:52.502Z,33.10
2019-04-04T18:49:33.801Z,31.37
2019-04-04T18:52:15.224Z,31.33
2019-04-04T18:54:56.098Z,29.77
2019-04-04T18:57:36.650Z,31.77
2019-04-04T19:00:17.504Z,31.30
2019-04-04T19:02:58.121Z,33.83
2019-04-04T19:05:39.353Z,32.13
2019-04-04T19:08:19.782Z,30.47
2019-04-04T19:11:00.661Z,31.73
2019-04-04T19:13:44.416Z,32.87
2019-04-04T19:16:24.132Z,35.00
2019-04-04T19:19:04.918Z,31.93
2019-04-04T19:21:45.599Z,31.63
2019-04-04T19:24:26.840Z,33.90
2019-04-04T19:27:08.103Z,33.67
2019-04-04T19:29:49.309Z,34.73
2019-04-04T19:32:29.910Z,31.57
2019-04-04T19:38:00.205Z,36.20
2019-04-04T19:40:39.712Z,35.93
2019-04-04T19:43:20.981Z,39.00
2019-04-04T19:46:01.769Z,35.70
2019-04-04T19:48:42.886Z,35.60
2019-04-04T19:51:24.396Z,39.73
2019-04-04T19:54:05.076Z,36.80
2019-04-04T19:56:45.864Z,39.37
2019-04-04T19:59:26.659Z,36.33
2019-04-04T20:02:07.565Z,36.37
2019-04-04T20:04:49.319Z,38.50
2019-04-04T20:07:30.679Z,37.43
2019-04-04T20:12:54.862Z,40.43
2019-04-04T20:15:36.094Z,41.80
2019-04-04T20:18:16.589Z,39.70
2019-04-04T20:20:57.216Z,42.40
2019-04-04T20:23:38.368Z,37.87
2019-04-04T20:26:19.194Z,42.50
2019-04-04T20:29:00.191Z,42.83
2019-04-04T20:31:41.075Z,43.53
2019-04-04T20:34:21.976Z,42.47
2019-04-04T20:37:03.244Z,42.97
2019-04-04T20:39:43.944Z,40.73
2019-04-04T20:42:24.798Z,42.27
2019-04-04T20:45:05.312Z,42.50
2019-04-04T20:47:46.178Z,41.83
2019-04-04T20:50:27.080Z,44.53
2019-04-04T20:53:07.934Z,41.30
2019-04-04T20:55:48.800Z,44.03
2019-04-04T20:58:29.664Z,44.03
2019-04-04T21:01:10.359Z,41.77
2019-04-04T21:03:51.591Z,44.73
2019-04-04T21:06:32.374Z,44.57
2019-04-04T21:09:13.265Z,45.53
2019-04-04T21:11:54.096Z,45.60
2019-04-04T21:14:34.864Z,44.50
2019-04-04T21:17:15.744Z,42.00
2019-04-04T21:19:56.905Z,44.50
2019-04-04T21:22:38.341Z,44.37
2019-04-04T21:25:19.325Z,44.27
2019-04-04T21:28:00.380Z,43.07
2019-04-04T21:30:41.868Z,42.37
2019-04-04T21:33:22.648Z,44.40
2019-04-04T21:36:03.568Z,44.63
2019-04-04T21:38:44.500Z,45.73
2019-04-04T21:41:25.445Z,44.80
2019-04-04T21:44:09.172Z,45.10
2019-04-04T21:46:48.918Z,46.03
2019-04-04T21:49:29.711Z,43.80
2019-04-04T21:52:10.380Z,47.30
2019-04-04T21:54:51.035Z,50.43
2019-04-04T21:57:31.806Z,46.53
2019-04-04T22:00:12.808Z,47.67
2019-04-04T22:02:53.419Z,48.60
2019-04-04T22:05:34.310Z,49.30
2019-04-04T22:08:15.058Z,50.40
2019-04-04T22:10:56.400Z,49.83
2019-04-04T22:13:36.993Z,52.17
2019-04-04T22:16:18.059Z,54.03
2019-04-04T22:18:58.616Z,52.93
2019-04-04T22:21:39.873Z,53.97
2019-04-04T22:24:22.385Z,54.33
2019-04-04T22:27:02.842Z,51.67
2019-04-04T22:29:44.528Z,56.07
2019-04-04T22:32:25.885Z,55.80
2019-04-04T22:35:06.960Z,52.60
2019-04-04T22:37:47.898Z,55.97
2019-04-04T22:40:28.521Z,53.30
2019-04-04T22:43:09.696Z,56.37
2019-04-04T22:45:50.322Z,56.80
2019-04-04T22:48:31.074Z,55.87
2019-04-04T22:51:11.491Z,53.60
2019-04-04T22:53:52.080Z,53.57
2019-04-04T22:56:32.908Z,58.00
2019-04-04T22:59:13.412Z,54.73
2019-04-04T23:01:54.203Z,57.40
2019-04-04T23:04:35.387Z,60.67
2019-04-04T23:10:02.062Z,57.60
2019-04-04T23:12:42.722Z,59.80
2019-04-04T23:15:23.477Z,56.30
2019-04-04T23:18:04.166Z,60.50
2019-04-04T23:20:45.116Z,59.17
2019-04-04T23:23:25.726Z,61.43
2019-04-04T23:26:06.951Z,62.10
2019-04-04T23:28:47.416Z,61.63
2019-04-04T23:31:28.193Z,61.23
2019-04-04T23:34:08.757Z,59.90
2019-04-04T23:36:49.209Z,57.47
2019-04-04T23:39:30.044Z,62.20
2019-04-04T23:42:10.884Z,58.77
2019-04-04T23:45:00.816Z,57.83
2019-04-04T23:47:42.680Z,54.73
2019-04-04T23:50:17.164Z,55.97
2019-04-04T23:52:57.996Z,55.10
2019-04-04T23:55:38.680Z,57.17
2019-04-04T23:58:19.419Z,53.60
